createdAt,value
2019-04-26T00:02:16.928Z,28.07
2019-04-26T00:04:50.613Z,30.02
2019-04-26T00:07:24.325Z,27.95
2019-04-26T00:10:00.576Z,27.95
2019-04-26T00:12:48.764Z,28.12
2019-04-26T00:15:54.504Z,27.27
2019-04-26T00:18:27.979Z,26.50
2019-04-26T00:21:01.451Z,25.95
2019-04-26T00:23:34.893Z,27.35
2019-04-26T00:26:08.547Z,25.75
2019-04-26T00:28:41.936Z,27.17
2019-04-26T00:31:15.264Z,28.42
2019-04-26T00:33:49.223Z,27.82
2019-04-26T00:36:22.915Z,25.65
2019-04-26T00:38:56.367Z,24.25
2019-04-26T00:41:30.311Z,25.45
2019-04-26T00:44:04.858Z,27.35
2019-04-26T00:46:40.612Z,29.65
2019-04-26T00:49:15.501Z,30.52
2019-04-26T00:51:49.583Z,28.47
2019-04-26T00:54:24.374Z,26.85
2019-04-26T00:56:58.173Z,28.25
2019-04-26T00:59:32.278Z,27.45
2019-04-26T01:02:14.148Z,28.05
2019-04-26T01:04:48.685Z,25.62
2019-04-26T01:07:23.210Z,27.60
2019-04-26T01:09:56.749Z,27.07
2019-04-26T01:12:32.301Z,28.00
2019-04-26T01:15:06.031Z,27.17
2019-04-26T01:17:39.673Z,26.73
2019-04-26T01:20:14.169Z,28.45
2019-04-26T01:22:51.952Z,28.55
2019-04-26T01:26:06.247Z,28.98
2019-04-26T01:28:49.541Z,29.27
2019-04-26T01:31:23.934Z,27.67
2019-04-26T01:33:57.524Z,28.70
2019-04-26T01:36:32.677Z,28.23
2019-04-26T01:39:21.287Z,27.73
2019-04-26T01:42:03.068Z,26.35
2019-04-26T01:45:10.788Z,27.48
2019-04-26T01:47:44.719Z,26.27
2019-04-26T01:50:18.809Z,26.90
2019-04-26T01:52:52.509Z,27.50
2019-04-26T01:55:29.189Z,26.33
2019-04-26T01:58:07.722Z,26.05
2019-04-26T02:00:52.143Z,25.57
2019-04-26T02:03:29.833Z,26.85
2019-04-26T02:06:03.245Z,26.37
2019-04-26T02:08:36.615Z,27.13
2019-04-26T02:11:10.049Z,25.27
2019-04-26T02:13:43.613Z,25.82
2019-04-26T02:16:17.071Z,27.25
2019-04-26T02:18:50.468Z,25.90
2019-04-26T02:21:34.996Z,26.77
2019-04-26T02:24:23.920Z,27.30
2019-04-26T02:26:58.641Z,25.37
2019-04-26T02:29:32.716Z,24.77
2019-04-26T02:32:09.250Z,24.57
2019-04-26T02:34:43.103Z,24.50
2019-04-26T02:37:18.386Z,25.88
2019-04-26T02:39:53.719Z,25.68
2019-04-26T02:42:46.799Z,25.52
2019-04-26T02:46:19.036Z,26.55
2019-04-26T02:49:27.504Z,25.30
2019-04-26T02:52:37.250Z,26.23
2019-04-26T02:55:38.656Z,26.50
2019-04-26T02:58:08.775Z,25.60
2019-04-26T03:00:42.434Z,25.75
2019-04-26T03:03:17.811Z,26.55
2019-04-26T03:05:52.929Z,25.57
2019-04-26T03:08:29.853Z,26.52
2019-04-26T03:11:18.158Z,25.92
2019-04-26T03:14:13.387Z,25.08
2019-04-26T03:17:02.791Z,25.90
2019-04-26T03:19:52.373Z,26.42
2019-04-26T03:23:03.583Z,25.72
2019-04-26T03:26:25.073Z,27.05
2019-04-26T03:29:23.369Z,28.32
2019-04-26T03:33:11.509Z,27.55
2019-04-26T03:36:21.585Z,26.60
2019-04-26T03:39:15.581Z,25.80
2019-04-26T03:42:35.191Z,25.20
2019-04-26T03:45:42.445Z,27.62
2019-04-26T03:49:04.628Z,28.32
2019-04-26T03:52:00.790Z,27.13
2019-04-26T03:54:37.964Z,28.67
2019-04-26T03:57:29.907Z,29.40
2019-04-26T04:00:51.763Z,28.02
2019-04-26T04:04:02.447Z,30.20
2019-04-26T04:06:56.711Z,28.17
2019-04-26T04:09:12.811Z,34.55
2019-04-26T04:12:10.225Z,34.95
2019-04-26T04:14:49.054Z,31.20
2019-04-26T04:17:38.711Z,31.95
2019-04-26T04:21:06.167Z,31.30
2019-04-26T04:24:32.320Z,29.70
2019-04-26T04:27:53.735Z,28.50
2019-04-26T04:31:03.582Z,29.82
2019-04-26T04:34:20.887Z,28.77
2019-04-26T04:36:59.153Z,28.05
2019-04-26T04:39:46.502Z,28.95
2019-04-26T04:43:08.477Z,28.20
2019-04-26T04:47:22.268Z,29.55
2019-04-26T04:50:12.325Z,28.92
2019-04-26T04:53:25.997Z,27.22
2019-04-26T04:57:04.479Z,28.65
2019-04-26T05:00:55.139Z,30.48
2019-04-26T05:03:56.547Z,28.45
2019-04-26T05:07:25.208Z,26.87
2019-04-26T05:10:34.779Z,26.73
2019-04-26T05:13:36.043Z,27.42
2019-04-26T05:17:10.592Z,25.55
2019-04-26T05:20:51.582Z,25.05
2019-04-26T05:24:08.857Z,29.10
2019-04-26T05:28:09.584Z,25.43
2019-04-26T05:31:26.472Z,23.22
2019-04-26T05:34:44.254Z,24.45
2019-04-26T05:37:59.334Z,24.85
2019-04-26T05:41:14.343Z,25.37
2019-04-26T05:44:23.246Z,24.47
2019-04-26T05:47:46.571Z,24.23
2019-04-26T05:51:06.755Z,25.27
2019-04-26T05:54:41.704Z,25.50
2019-04-26T05:58:26.525Z,25.97
2019-04-26T06:02:09.043Z,23.45
2019-04-26T06:05:02.221Z,23.30
2019-04-26T06:08:04.586Z,22.95
2019-04-26T06:11:03.435Z,21.35
2019-04-26T06:14:31.771Z,22.58
2019-04-26T06:17:44.978Z,21.70
2019-04-26T06:20:41.910Z,20.02
2019-04-26T06:23:41.627Z,20.75
2019-04-26T06:26:44.645Z,19.48
2019-04-26T06:29:29.614Z,19.80
2019-04-26T06:32:21.113Z,16.65
2019-04-26T06:35:16.045Z,15.63
2019-04-26T06:39:07.743Z,14.78
2019-04-26T06:42:27.021Z,14.80
2019-04-26T06:45:41.461Z,13.13
2019-04-26T06:48:57.042Z,14.70
2019-04-26T06:51:39.844Z,13.45
2019-04-26T06:55:27.431Z,13.00
2019-04-26T06:58:54.478Z,11.25
2019-04-26T07:02:01.369Z,10.90
2019-04-26T07:05:15.271Z,10.10
2019-04-26T07:09:02.705Z,10.13
2019-04-26T07:12:32.938Z,9.53
2019-04-26T07:16:17.975Z,9.25
2019-04-26T07:19:21.318Z,7.97
2019-04-26T07:22:37.757Z,8.98
2019-04-26T07:26:14.599Z,7.58
2019-04-26T07:29:56.214Z,8.33
2019-04-26T07:33:08.421Z,6.92
2019-04-26T07:36:22.818Z,7.20
2019-04-26T07:40:25.903Z,7.47
2019-04-26T07:44:31.707Z,7.12
2019-04-26T07:48:18.440Z,7.87
2019-04-26T07:51:45.637Z,5.83
2019-04-26T07:55:24.622Z,5.83
2019-04-26T07:59:12.861Z,4.42
2019-04-26T08:02:46.566Z,4.60
2019-04-26T08:05:36.756Z,5.55
2019-04-26T08:08:17.124Z,4.42
2019-04-26T08:11:14.899Z,5.08
2019-04-26T08:14:18.134Z,4.60
2019-04-26T08:17:30.750Z,4.80
2019-04-26T08:20:28.207Z,4.80
2019-04-26T08:23:08.967Z,4.97
2019-04-26T08:25:42.999Z,4.70
2019-04-26T08:28:19.799Z,4.30
2019-04-26T08:30:55.760Z,4.55
2019-04-26T08:33:36.405Z,5.47
2019-04-26T08:36:12.779Z,4.58
2019-04-26T08:38:48.775Z,4.87
2019-04-26T08:41:24.991Z,4.35
2019-04-26T08:44:19.113Z,4.42
2019-04-26T08:47:16.414Z,3.45
2019-04-26T08:50:11.102Z,4.55
2019-04-26T08:52:45.508Z,4.08
2019-04-26T08:55:21.831Z,4.28
2019-04-26T08:57:58.900Z,4.35
2019-04-26T09:00:44.497Z,3.65
2019-04-26T09:03:28.979Z,4.22
2019-04-26T09:06:27.705Z,4.67
2019-04-26T09:09:14.312Z,4.53
2019-04-26T09:11:59.505Z,3.47
2019-04-26T09:14:29.645Z,3.45
2019-04-26T09:17:03.018Z,4.40
2019-04-26T09:19:37.119Z,3.80
2019-04-26T09:22:35.191Z,3.95
2019-04-26T09:25:34.462Z,4.33
2019-04-26T09:28:22.429Z,4.15
2019-04-26T09:31:06.411Z,4.40
2019-04-26T09:33:52.686Z,4.75
2019-04-26T09:36:26.106Z,4.08
2019-04-26T09:38:59.478Z,4.05
2019-04-26T09:41:32.951Z,5.25
2019-04-26T09:44:25.110Z,4.33
2019-04-26T09:47:14.192Z,4.50
2019-04-26T09:49:54.072Z,4.00
2019-04-26T09:52:31.049Z,4.25
2019-04-26T09:55:04.444Z,4.47
2019-04-26T09:57:37.846Z,4.35
2019-04-26T10:00:17.242Z,4.33
2019-04-26T10:02:50.612Z,5.50
2019-04-26T10:05:23.974Z,3.90
2019-04-26T10:07:58.301Z,4.58
2019-04-26T10:10:35.363Z,4.97
2019-04-26T10:13:29.646Z,5.15
2019-04-26T10:16:21.738Z,4.60
2019-04-26T10:19:00.479Z,4.03
2019-04-26T10:21:33.955Z,5.00
2019-04-26T10:24:08.558Z,4.58
2019-04-26T10:26:42.280Z,3.92
2019-04-26T10:29:15.798Z,4.92
2019-04-26T10:31:51.845Z,5.45
2019-04-26T10:34:24.268Z,4.08
2019-04-26T10:37:01.689Z,4.70
2019-04-26T10:39:33.911Z,4.30
2019-04-26T10:42:07.880Z,3.90
2019-04-26T10:44:41.328Z,4.00
2019-04-26T10:47:15.796Z,4.03
2019-04-26T10:49:54.464Z,3.62
2019-04-26T10:52:45.688Z,4.37
2019-04-26T10:55:52.803Z,5.17
2019-04-26T10:58:48.034Z,3.55
2019-04-26T11:01:21.805Z,4.03
2019-04-26T11:03:55.451Z,4.15
2019-04-26T11:06:29.926Z,3.77
2019-04-26T11:09:03.435Z,4.35
2019-04-26T11:11:38.805Z,3.92
2019-04-26T11:14:12.432Z,4.40
2019-04-26T11:16:46.031Z,4.92
2019-04-26T11:19:19.580Z,3.00
2019-04-26T11:21:54.882Z,3.45
2019-04-26T11:24:27.877Z,3.75
2019-04-26T11:27:05.290Z,3.58
2019-04-26T11:29:36.749Z,4.15
2019-04-26T11:32:10.747Z,4.03
2019-04-26T11:34:44.267Z,3.92
2019-04-26T11:37:19.284Z,3.45
2019-04-26T11:39:52.867Z,4.28
2019-04-26T11:42:26.192Z,3.52
2019-04-26T11:45:05.943Z,4.42
2019-04-26T11:47:37.182Z,3.00
2019-04-26T11:50:12.485Z,3.72
2019-04-26T11:52:45.942Z,3.75
2019-04-26T11:55:20.382Z,3.62
2019-04-26T11:57:53.722Z,3.65
2019-04-26T12:00:58.599Z,3.62
2019-04-26T12:03:33.334Z,4.20
2019-04-26T12:06:25.428Z,3.72
2019-04-26T12:09:05.502Z,3.33
2019-04-26T12:11:48.891Z,4.40
2019-04-26T12:14:20.542Z,4.22
2019-04-26T12:16:51.532Z,3.75
2019-04-26T12:19:24.159Z,3.55
2019-04-26T12:21:57.612Z,3.30
2019-04-26T12:24:34.380Z,4.05
2019-04-26T12:27:06.241Z,3.30
2019-04-26T12:29:39.911Z,3.62
2019-04-26T12:32:17.183Z,3.12
2019-04-26T12:34:49.553Z,3.58
2019-04-26T12:37:23.026Z,3.87
2019-04-26T12:39:58.864Z,3.20
2019-04-26T12:42:32.970Z,2.75
2019-04-26T12:45:27.599Z,3.10
2019-04-26T12:48:04.199Z,3.37
2019-04-26T12:50:38.177Z,3.33
2019-04-26T12:53:22.374Z,2.98
2019-04-26T12:56:00.025Z,3.20
2019-04-26T12:58:34.799Z,2.80
2019-04-26T13:01:12.106Z,2.30
2019-04-26T13:03:46.695Z,2.77
2019-04-26T13:06:20.339Z,2.75
2019-04-26T13:08:56.103Z,3.15
2019-04-26T13:11:57.913Z,2.50
2019-04-26T13:14:42.871Z,2.87
2019-04-26T13:17:18.101Z,3.02
2019-04-26T13:19:54.014Z,3.00
2019-04-26T13:22:26.383Z,2.55
2019-04-26T13:24:59.714Z,3.17
2019-04-26T13:27:33.191Z,3.00
2019-04-26T13:30:10.598Z,2.47
2019-04-26T13:32:45.210Z,2.90
2019-04-26T13:35:18.683Z,5.60
2019-04-26T13:37:52.042Z,3.20
2019-04-26T13:40:25.651Z,2.70
2019-04-26T13:42:59.265Z,2.83
2019-04-26T13:45:43.723Z,2.95
2019-04-26T13:48:35.242Z,2.92
2019-04-26T13:51:09.951Z,2.70
2019-04-26T13:53:44.751Z,2.72
2019-04-26T13:56:18.234Z,2.77
2019-04-26T13:58:54.330Z,2.80
2019-04-26T14:01:26.697Z,2.40
2019-04-26T14:04:02.448Z,2.95
2019-04-26T14:06:36.301Z,3.02
2019-04-26T14:09:13.495Z,3.37
2019-04-26T14:11:46.808Z,3.40
2019-04-26T14:14:20.441Z,2.80
2019-04-26T14:16:55.725Z,3.30
2019-04-26T14:19:28.723Z,3.15
2019-04-26T14:22:03.153Z,2.83
2019-04-26T14:24:44.539Z,3.05
2019-04-26T14:27:24.771Z,3.08
2019-04-26T14:30:18.463Z,4.25
2019-04-26T14:32:57.376Z,3.30
2019-04-26T14:35:32.048Z,2.77
2019-04-26T14:38:05.411Z,3.30
2019-04-26T14:40:39.313Z,2.30
2019-04-26T14:43:13.773Z,2.37
2019-04-26T14:45:55.607Z,3.17
2019-04-26T14:48:35.105Z,3.50
2019-04-26T14:51:07.408Z,3.10
2019-04-26T14:53:36.461Z,3.65
2019-04-26T14:56:08.478Z,5.03
2019-04-26T14:58:42.306Z,4.92
2019-04-26T15:01:28.467Z,5.05
2019-04-26T15:04:29.248Z,2.85
2019-04-26T15:07:05.489Z,3.27
2019-04-26T15:09:37.783Z,3.40
2019-04-26T15:12:14.027Z,3.27
2019-04-26T15:14:49.363Z,2.52
2019-04-26T15:17:24.880Z,3.33
2019-04-26T15:19:57.388Z,3.67
2019-04-26T15:22:30.829Z,2.45
2019-04-26T15:25:07.692Z,2.90
2019-04-26T15:27:39.368Z,3.12
2019-04-26T15:30:14.320Z,3.10
2019-04-26T15:32:47.704Z,3.15
2019-04-26T15:35:23.086Z,3.33
2019-04-26T15:37:57.483Z,3.40
2019-04-26T15:41:11.574Z,3.90
2019-04-26T15:44:00.796Z,3.70
2019-04-26T15:46:59.056Z,3.05
2019-04-26T15:49:39.025Z,3.47
2019-04-26T15:52:12.499Z,3.72
2019-04-26T15:54:46.013Z,3.55
2019-04-26T15:57:19.439Z,3.10
2019-04-26T15:59:54.386Z,3.37
2019-04-26T16:02:27.755Z,3.10
2019-04-26T16:05:02.637Z,3.33
2019-04-26T16:07:36.084Z,3.55
2019-04-26T16:10:09.720Z,4.10
2019-04-26T16:12:43.042Z,3.12
2019-04-26T16:15:16.616Z,2.87
2019-04-26T16:17:49.990Z,2.98
2019-04-26T16:20:23.390Z,4.15
2019-04-26T16:23:00.313Z,5.30
2019-04-26T16:25:34.344Z,4.85
2019-04-26T16:28:24.311Z,3.85
2019-04-26T16:31:06.676Z,3.15
2019-04-26T16:33:41.121Z,4.65
2019-04-26T16:36:14.481Z,12.55
2019-04-26T16:41:27.365Z,3.72
2019-04-26T16:43:57.917Z,3.65
2019-04-26T16:46:33.303Z,7.60
2019-04-26T16:49:11.347Z,3.22
2019-04-26T16:51:43.596Z,3.58
2019-04-26T16:54:21.776Z,4.47
2019-04-26T16:56:52.606Z,3.60
2019-04-26T16:59:26.839Z,3.75
2019-04-26T17:00:30.714Z,7.25
2019-04-26T17:02:02.405Z,4.30
2019-04-26T17:04:36.378Z,3.67
2019-04-26T17:07:13.446Z,4.92
2019-04-26T17:09:58.015Z,3.10
2019-04-26T17:12:22.625Z,3.80
2019-04-26T17:14:55.858Z,4.92
2019-04-26T17:17:29.308Z,5.05
2019-04-26T17:20:02.677Z,4.90
2019-04-26T17:23:00.848Z,8.13
2019-04-26T17:25:51.348Z,8.75
2019-04-26T17:28:26.504Z,7.90
2019-04-26T17:30:59.708Z,8.28
2019-04-26T17:33:33.175Z,8.15
2019-04-26T17:36:06.686Z,7.70
2019-04-26T17:38:41.973Z,8.60
2019-04-26T17:41:15.093Z,8.48
2019-04-26T17:43:52.041Z,8.45
2019-04-26T17:46:23.381Z,6.72
2019-04-26T17:48:56.755Z,6.40
2019-04-26T17:51:35.221Z,8.85
2019-04-26T17:54:21.163Z,11.10
2019-04-26T17:56:42.016Z,12.18
2019-04-26T17:59:32.610Z,13.00
2019-04-26T18:02:00.160Z,12.85
2019-04-26T18:04:34.498Z,16.87
2019-04-26T18:07:03.849Z,18.20
2019-04-26T18:09:44.703Z,16.77
2019-04-26T18:12:12.443Z,18.80
2019-04-26T18:14:46.115Z,23.73
2019-04-26T18:17:36.447Z,34.33
2019-04-26T18:20:23.535Z,48.25
2019-04-26T18:23:01.163Z,41.53
2019-04-26T18:25:34.741Z,35.30
2019-04-26T18:28:08.825Z,23.75
2019-04-26T18:30:44.862Z,18.45
2019-04-26T18:33:24.150Z,13.83
2019-04-26T18:35:57.416Z,12.13
2019-04-26T18:38:29.543Z,9.23
2019-04-26T18:41:03.684Z,8.80
2019-04-26T18:43:37.212Z,10.53
2019-04-26T18:46:16.207Z,11.05
2019-04-26T18:48:49.574Z,11.10
2019-04-26T18:51:23.603Z,11.22
2019-04-26T18:54:18.943Z,9.88
2019-04-26T18:56:56.100Z,10.45
2019-04-26T18:59:30.462Z,10.38
2019-04-26T19:02:04.027Z,11.38
2019-04-26T19:04:37.502Z,11.80
2019-04-26T19:07:12.067Z,16.12
2019-04-26T19:09:58.957Z,23.00
2019-04-26T19:12:23.265Z,22.27
2019-04-26T19:15:22.724Z,23.22
2019-04-26T19:18:12.679Z,21.75
2019-04-26T19:21:03.518Z,24.65
2019-04-26T19:23:36.952Z,25.48
2019-04-26T19:26:13.685Z,25.50
2019-04-26T19:28:46.947Z,23.05
2019-04-26T19:31:23.854Z,20.88
2019-04-26T19:33:56.088Z,19.48
2019-04-26T19:36:32.772Z,21.27
2019-04-26T19:39:07.533Z,23.02
2019-04-26T19:41:42.424Z,22.67
2019-04-26T19:44:18.841Z,24.60
2019-04-26T19:47:08.024Z,24.67
2019-04-26T19:50:09.813Z,25.17
2019-04-26T19:53:01.803Z,26.62
2019-04-26T19:55:47.489Z,27.10
2019-04-26T19:58:22.885Z,24.87
2019-04-26T20:00:56.193Z,23.95
2019-04-26T20:03:29.558Z,25.57
2019-04-26T20:06:04.866Z,24.57
2019-04-26T20:08:44.406Z,25.23
2019-04-26T20:11:18.911Z,23.47
2019-04-26T20:13:51.920Z,19.48
2019-04-26T20:16:25.994Z,21.10
2019-04-26T20:18:59.762Z,20.32
2019-04-26T20:21:34.543Z,18.62
2019-04-26T20:24:07.957Z,18.37
2019-04-26T20:26:44.277Z,17.20
2019-04-26T20:29:16.479Z,14.05
2019-04-26T20:32:05.230Z,12.15
2019-04-26T20:34:38.887Z,13.08
2019-04-26T20:37:16.184Z,17.95
2019-04-26T20:39:55.770Z,18.48
2019-04-26T20:42:31.617Z,16.17
2019-04-26T20:45:11.307Z,13.30
2019-04-26T20:47:46.782Z,21.23
2019-04-26T20:50:21.661Z,21.37
2019-04-26T20:53:00.581Z,19.60
2019-04-26T20:55:34.486Z,18.37
2019-04-26T20:58:08.614Z,16.62
2019-04-26T21:00:53.680Z,16.15
2019-04-26T21:03:23.844Z,15.15
2019-04-26T21:05:58.834Z,16.07
2019-04-26T21:08:27.167Z,15.45
2019-04-26T21:11:01.707Z,15.80
2019-04-26T21:13:35.531Z,16.57
2019-04-26T21:16:10.753Z,16.12
2019-04-26T21:18:44.474Z,15.03
2019-04-26T21:21:17.982Z,14.58
2019-04-26T21:23:51.863Z,12.95
2019-04-26T21:26:46.643Z,11.70
2019-04-26T21:29:27.056Z,12.03
2019-04-26T21:32:35.439Z,13.10
2019-04-26T21:35:13.540Z,12.82
2019-04-26T21:37:59.665Z,11.40
2019-04-26T21:40:38.399Z,11.12
2019-04-26T21:43:17.620Z,11.00
2019-04-26T21:46:14.347Z,12.70
2019-04-26T21:48:44.715Z,10.00
2019-04-26T21:51:23.037Z,9.03
2019-04-26T21:54:00.814Z,9.03
2019-04-26T21:56:36.032Z,7.97
2019-04-26T21:59:13.871Z,8.90
2019-04-26T22:01:52.689Z,9.28
2019-04-26T22:04:28.934Z,9.25
2019-04-26T22:07:07.517Z,10.20
2019-04-26T22:09:55.091Z,8.98
2019-04-26T22:12:31.272Z,11.28
2019-04-26T22:15:21.461Z,10.65
2019-04-26T22:17:57.876Z,9.55
2019-04-26T22:20:35.633Z,8.38
2019-04-26T22:23:34.177Z,10.38
2019-04-26T22:26:09.477Z,10.58
2019-04-26T22:28:49.531Z,9.70
2019-04-26T22:31:33.731Z,10.88
2019-04-26T22:34:09.600Z,9.13
2019-04-26T22:36:43.853Z,8.68
2019-04-26T22:39:20.906Z,11.90
2019-04-26T22:41:54.166Z,10.53
2019-04-26T22:44:40.816Z,9.95
2019-04-26T22:47:24.144Z,9.13
2019-04-26T22:49:58.880Z,9.65
2019-04-26T22:52:33.483Z,9.28
2019-04-26T22:55:07.774Z,8.08
2019-04-26T22:57:41.020Z,8.20
2019-04-26T23:00:15.023Z,6.78
2019-04-26T23:02:50.036Z,7.00
2019-04-26T23:05:23.393Z,6.72
2019-04-26T23:07:59.341Z,5.83
2019-04-26T23:10:39.144Z,6.25
2019-04-26T23:13:23.182Z,5.67
2019-04-26T23:16:11.212Z,5.20
2019-04-26T23:18:51.567Z,5.47
2019-04-26T23:24:27.652Z,4.87
2019-04-26T23:27:00.784Z,4.90
2019-04-26T23:29:34.008Z,5.25
2019-04-26T23:32:07.419Z,5.83
2019-04-26T23:34:40.907Z,5.47
2019-04-26T23:37:14.153Z,6.42
2019-04-26T23:39:49.759Z,7.53
2019-04-26T23:42:23.263Z,9.10
2019-04-26T23:44:57.050Z,10.43
2019-04-26T23:47:31.935Z,9.55
2019-04-26T23:50:05.380Z,10.58
2019-04-26T23:52:40.546Z,10.78
2019-04-26T23:55:13.781Z,14.20
2019-04-26T23:57:47.028Z,13.60
